Time;durP1;ratioP1;P1;durP2;ratioP2;P2;SDS_P1;SDS_P2;PMS_P1;PMS_P2;Temp;Humidity;BMP_temperature;BMP_pressure;BME280_temperature;BME280_humidity;BME280_pressure;Samples;Min_cycle;Max_cycle;Signal;HPM_P1;HPM_P2
2024/02/11 00:01:36;;;;;;;32.87;20.80;;;11.10;99.90;;;;;;5055295;28;20919;-63
2024/02/11 00:04:04;;;;;;;33.90;20.80;;;11.10;99.90;;;;;;5055452;28;20447;-64
2024/02/11 00:06:31;;;;;;;37.03;20.63;;;11.10;99.90;;;;;;5055506;28;20507;-64
2024/02/11 00:08:59;;;;;;;36.77;22.73;;;11.10;99.90;;;;;;5055441;28;20483;-63
2024/02/11 00:11:28;;;;;;;35.27;23.30;;;11.10;99.90;;;;;;5054882;28;20514;-62
2024/02/11 00:13:55;;;;;;;46.00;24.80;;;11.10;99.90;;;;;;5054985;28;20451;-62
2024/02/11 00:16:23;;;;;;;33.07;20.70;;;11.10;99.90;;;;;;5055054;28;20491;-62
2024/02/11 00:18:50;;;;;;;40.40;21.40;;;11.10;99.90;;;;;;5055255;28;20448;-62
2024/02/11 00:21:17;;;;;;;36.73;24.30;;;11.10;99.90;;;;;;5054498;28;20918;-62
2024/02/11 00:23:44;;;;;;;40.67;23.10;;;11.10;99.90;;;;;;5054858;28;20741;-64
2024/02/11 00:26:12;;;;;;;53.77;29.50;;;11.10;99.90;;;;;;5054758;28;20439;-63
2024/02/11 00:28:39;;;;;;;47.37;26.50;;;11.10;99.90;;;;;;5054474;28;20447;-63
2024/02/11 00:31:06;;;;;;;45.83;26.07;;;11.10;99.90;;;;;;5054559;28;20446;-62
2024/02/11 00:33:33;;;;;;;39.60;24.83;;;11.00;99.90;;;;;;5054441;28;20559;-61
2024/02/11 00:36:01;;;;;;;41.97;23.23;;;11.10;99.90;;;;;;5054613;28;20571;-63
2024/02/11 00:38:28;;;;;;;43.73;23.97;;;11.00;99.90;;;;;;5054262;28;20463;-63
2024/02/11 00:40:55;;;;;;;38.83;24.20;;;11.00;99.90;;;;;;5054388;28;20491;-63
2024/02/11 00:43:23;;;;;;;41.93;25.60;;;11.00;99.90;;;;;;5054214;28;20526;-63
2024/02/11 00:45:50;;;;;;;43.60;26.27;;;11.00;99.90;;;;;;5054414;28;20841;-64
2024/02/11 00:48:17;;;;;;;45.87;26.67;;;11.00;99.90;;;;;;5054146;28;20454;-62
2024/02/11 00:50:44;;;;;;;51.10;25.50;;;11.00;99.90;;;;;;5054472;28;20443;-63
2024/02/11 00:53:11;;;;;;;42.90;23.77;;;11.00;99.90;;;;;;5054389;28;20951;-62
2024/02/11 00:55:38;;;;;;;48.77;29.07;;;11.00;99.90;;;;;;5054212;28;20544;-64
2024/02/11 00:58:05;;;;;;;44.90;26.00;;;11.00;99.90;;;;;;5057024;28;20442;-63
2024/02/11 01:00:33;;;;;;;52.60;28.70;;;11.00;99.90;;;;;;5066007;28;20475;-63
2024/02/11 01:03:00;;;;;;;44.50;25.00;;;11.00;99.90;;;;;;5066422;28;20886;-63
2024/02/11 01:05:28;;;;;;;42.07;26.43;;;11.00;99.90;;;;;;5066135;28;20460;-64
2024/02/11 01:07:55;;;;;;;39.70;24.93;;;11.00;99.90;;;;;;5065377;28;20830;-64
2024/02/11 01:10:24;;;;;;;46.83;27.37;;;10.90;99.90;;;;;;5065807;28;20447;-62
2024/02/11 01:12:51;;;;;;;49.30;27.53;;;11.00;99.90;;;;;;5064126;28;20537;-63
2024/02/11 01:15:21;;;;;;;52.10;28.37;;;11.00;99.90;;;;;;5066753;28;20956;-63
2024/02/11 01:17:52;;;;;;;50.83;27.10;;;10.90;99.90;;;;;;5065593;28;20444;-64
2024/02/11 01:20:19;;;;;;;52.77;28.17;;;10.90;99.90;;;;;;5057823;28;20562;-63
2024/02/11 01:22:50;;;;;;;52.07;27.93;;;10.90;99.90;;;;;;5056480;28;20444;-64
2024/02/11 01:25:19;;;;;;;52.63;27.33;;;10.80;99.90;;;;;;5062895;28;20420;-65
2024/02/11 01:27:46;;;;;;;49.20;27.27;;;10.80;99.90;;;;;;5064292;28;20436;-63
2024/02/11 01:30:14;;;;;;;43.60;24.33;;;10.80;99.90;;;;;;5066758;28;20511;-64
2024/02/11 01:32:41;;;;;;;52.10;27.60;;;10.90;99.90;;;;;;5065493;28;20818;-64
2024/02/11 01:35:12;;;;;;;55.10;28.97;;;10.90;99.90;;;;;;5064911;28;20472;-64
2024/02/11 01:37:41;;;;;;;53.73;29.23;;;10.90;99.90;;;;;;5063825;28;20451;-63
2024/02/11 01:40:13;;;;;;;47.17;25.60;;;10.90;99.90;;;;;;5064868;28;20555;-64
2024/02/11 01:42:40;;;;;;;55.57;29.77;;;10.90;99.90;;;;;;5063623;28;20530;-64
2024/02/11 01:45:08;;;;;;;50.50;28.67;;;10.80;99.90;;;;;;5065509;28;20447;-64
2024/02/11 01:47:36;;;;;;;57.07;29.73;;;10.90;99.90;;;;;;5065070;28;20469;-63
2024/02/11 01:50:08;;;;;;;59.33;29.00;;;10.90;99.90;;;;;;5062005;28;20458;-66
2024/02/11 01:52:37;;;;;;;51.97;29.80;;;10.90;99.90;;;;;;5059992;28;20431;-63
2024/02/11 01:55:05;;;;;;;56.03;28.33;;;10.80;99.90;;;;;;5059613;28;20502;-63
2024/02/11 01:57:33;;;;;;;52.17;27.90;;;10.80;99.90;;;;;;5060336;28;20771;-64
2024/02/11 02:00:02;;;;;;;53.53;27.13;;;10.80;99.90;;;;;;5060143;28;20467;-62
2024/02/11 02:02:31;;;;;;;76.80;28.77;;;10.70;99.90;;;;;;5060670;28;20442;-63
2024/02/11 02:05:00;;;;;;;54.27;28.20;;;10.70;99.90;;;;;;5059592;28;20449;-62
2024/02/11 02:07:27;;;;;;;51.83;29.20;;;10.70;99.90;;;;;;5059539;28;20556;-65
2024/02/11 02:10:00;;;;;;;52.20;27.27;;;10.70;99.90;;;;;;5058700;28;20451;-63
2024/02/11 02:12:27;;;;;;;56.57;28.90;;;10.70;99.90;;;;;;5057377;28;20432;-62
2024/02/11 02:14:55;;;;;;;51.40;27.30;;;10.60;99.90;;;;;;5057044;28;20545;-63
2024/02/11 02:17:22;;;;;;;56.27;29.90;;;10.60;99.90;;;;;;5057300;28;20801;-62
2024/02/11 02:19:51;;;;;;;58.27;29.87;;;10.60;99.90;;;;;;5057004;28;20554;-63
2024/02/11 02:22:20;;;;;;;49.40;26.13;;;10.60;99.90;;;;;;5056774;28;20438;-65
2024/02/11 02:24:49;;;;;;;57.67;28.43;;;10.60;99.90;;;;;;5057075;28;20533;-63
2024/02/11 02:27:16;;;;;;;53.53;29.30;;;10.60;99.90;;;;;;5056590;28;20959;-62
2024/02/11 02:29:44;;;;;;;56.80;30.10;;;10.60;99.90;;;;;;5056687;28;20479;-64
2024/02/11 02:32:11;;;;;;;51.37;26.00;;;10.60;99.90;;;;;;5056894;28;20454;-63
2024/02/11 02:34:40;;;;;;;55.97;26.93;;;10.60;99.90;;;;;;5057418;28;20847;-63
2024/02/11 02:37:07;;;;;;;52.60;26.90;;;10.60;99.90;;;;;;5056488;28;20486;-64
2024/02/11 02:39:36;;;;;;;58.60;27.80;;;10.60;99.90;;;;;;5056402;28;20538;-63
2024/02/11 02:42:03;;;;;;;56.57;29.90;;;10.60;99.90;;;;;;5056734;28;20438;-65
2024/02/11 02:44:31;;;;;;;58.13;26.30;;;10.60;99.90;;;;;;5056693;28;20755;-65
2024/02/11 02:46:58;;;;;;;58.77;27.97;;;10.60;99.90;;;;;;5056230;28;20459;-64
2024/02/11 02:49:26;;;;;;;60.80;29.10;;;10.60;99.90;;;;;;5056625;28;20538;-63
2024/02/11 02:51:57;;;;;;;52.73;26.00;;;10.60;99.90;;;;;;5057432;28;20458;-62
2024/02/11 02:54:24;;;;;;;44.00;25.50;;;10.60;99.90;;;;;;5056325;28;20601;-63
2024/02/11 02:56:52;;;;;;;44.57;25.17;;;10.60;99.90;;;;;;5056395;28;20476;-63
2024/02/11 02:59:19;;;;;;;51.67;28.80;;;10.60;99.90;;;;;;5055496;28;20543;-64
2024/02/11 03:01:47;;;;;;;50.90;26.23;;;10.60;99.90;;;;;;5056376;28;20529;-63
2024/02/11 03:04:15;;;;;;;51.17;25.97;;;10.60;99.90;;;;;;5056269;28;20462;-62
2024/02/11 03:06:42;;;;;;;57.83;25.47;;;10.60;99.90;;;;;;5055902;28;20502;-63
2024/02/11 03:09:09;;;;;;;54.03;27.03;;;10.60;99.90;;;;;;5056314;28;20432;-64
2024/02/11 03:11:37;;;;;;;53.87;28.73;;;10.60;99.90;;;;;;5055935;28;20443;-64
2024/02/11 03:14:06;;;;;;;54.90;27.57;;;10.60;99.90;;;;;;5056074;28;20800;-63
2024/02/11 03:16:32;;;;;;;51.47;26.10;;;10.60;99.90;;;;;;5055683;28;20574;-63
2024/02/11 03:18:59;;;;;;;62.47;24.87;;;10.50;99.90;;;;;;5056102;28;20526;-63
2024/02/11 03:21:26;;;;;;;41.67;24.07;;;10.50;99.90;;;;;;5055696;28;20960;-63
2024/02/11 03:23:53;;;;;;;47.27;26.40;;;10.50;99.90;;;;;;5055663;28;20533;-63
2024/02/11 03:26:20;;;;;;;51.10;26.50;;;10.50;99.90;;;;;;5055810;28;20523;-64
2024/02/11 03:28:46;;;;;;;48.60;26.93;;;10.50;99.90;;;;;;5055888;28;20553;-63
2024/02/11 03:31:15;;;;;;;51.00;28.07;;;10.50;99.90;;;;;;5055496;28;20476;-63
2024/02/11 03:33:42;;;;;;;50.30;26.70;;;10.40;99.90;;;;;;5055457;28;20557;-63
2024/02/11 03:36:09;;;;;;;54.37;28.40;;;10.40;99.90;;;;;;5055674;28;20963;-64
2024/02/11 03:38:35;;;;;;;58.67;27.60;;;10.40;99.90;;;;;;5054523;28;20522;-64
2024/02/11 03:41:02;;;;;;;48.30;24.27;;;10.40;99.90;;;;;;5054421;28;20554;-64
2024/02/11 03:43:29;;;;;;;64.70;27.13;;;10.40;99.90;;;;;;5054397;28;20935;-66
2024/02/11 03:45:57;;;;;;;66.43;27.03;;;10.30;99.90;;;;;;5054757;28;20444;-65
2024/02/11 03:48:26;;;;;;;53.90;27.10;;;10.30;99.90;;;;;;5054678;28;20458;-64
2024/02/11 03:50:52;;;;;;;57.47;27.87;;;10.30;99.90;;;;;;5054363;28;20514;-63
2024/02/11 03:53:21;;;;;;;56.43;25.83;;;10.30;99.90;;;;;;5054207;28;20460;-63
2024/02/11 03:55:48;;;;;;;54.33;28.40;;;10.30;99.90;;;;;;5054214;28;20435;-62
2024/02/11 03:58:15;;;;;;;54.70;25.47;;;10.30;99.90;;;;;;5054299;28;20538;-65
2024/02/11 04:00:44;;;;;;;53.67;26.70;;;10.30;99.90;;;;;;5054676;28;20580;-64
2024/02/11 04:03:12;;;;;;;53.30;26.30;;;10.40;99.90;;;;;;5054487;28;20443;-63
2024/02/11 04:05:43;;;;;;;49.60;24.57;;;10.40;99.90;;;;;;5054592;28;20455;-65
2024/02/11 04:08:11;;;;;;;50.97;25.90;;;10.40;99.90;;;;;;5054184;28;20507;-63
2024/02/11 04:10:39;;;;;;;57.63;26.97;;;10.40;99.90;;;;;;5053999;28;20534;-64
2024/02/11 04:13:09;;;;;;;53.77;26.47;;;10.50;99.90;;;;;;5054394;28;20519;-63
2024/02/11 04:15:37;;;;;;;51.27;26.70;;;10.50;99.90;;;;;;5054365;28;20537;-64
2024/02/11 04:18:13;;;;;;;58.00;27.00;;;10.40;99.90;;;;;;5054336;28;20514;-63
2024/02/11 04:20:43;;;;;;;55.67;25.77;;;10.50;99.90;;;;;;5054053;28;20514;-64
2024/02/11 04:23:10;;;;;;;59.50;24.97;;;10.50;99.90;;;;;;5053938;28;21004;-64
2024/02/11 04:25:41;;;;;;;73.13;27.30;;;10.40;99.90;;;;;;5054050;28;20485;-63
2024/02/11 04:28:09;;;;;;;58.47;27.23;;;10.40;99.90;;;;;;5054191;28;20434;-63
2024/02/11 04:30:38;;;;;;;53.53;29.80;;;10.50;99.90;;;;;;5053655;28;20459;-64
2024/02/11 04:33:05;;;;;;;71.40;32.93;;;10.40;99.90;;;;;;5054083;28;20423;-63
2024/02/11 04:35:33;;;;;;;47.63;27.87;;;10.40;99.90;;;;;;5054013;28;20449;-65
2024/02/11 04:38:07;;;;;;;63.17;28.10;;;10.40;99.90;;;;;;5015502;28;1106241;-64
2024/02/11 04:40:35;;;;;;;64.67;27.00;;;10.40;99.90;;;;;;5054795;28;20431;-61
2024/02/11 04:43:02;;;;;;;53.33;24.60;;;10.40;99.90;;;;;;5054599;28;20781;-63
2024/02/11 04:45:29;;;;;;;55.93;28.13;;;10.40;99.90;;;;;;5055111;28;20432;-64
2024/02/11 04:47:59;;;;;;;52.77;25.80;;;10.30;99.90;;;;;;5054657;28;20530;-63
2024/02/11 04:50:26;;;;;;;59.97;28.47;;;10.40;99.90;;;;;;5054675;28;20467;-63
2024/02/11 04:52:58;;;;;;;49.50;24.23;;;10.40;99.90;;;;;;5054467;28;20979;-63
2024/02/11 04:55:27;;;;;;;52.90;23.23;;;10.30;99.90;;;;;;5054366;28;20470;-63
2024/02/11 04:57:56;;;;;;;48.60;25.00;;;10.30;99.90;;;;;;5054356;28;20467;-63
2024/02/11 05:00:27;;;;;;;51.07;24.20;;;10.30;99.90;;;;;;5054570;28;20443;-64
2024/02/11 05:02:55;;;;;;;56.33;26.90;;;10.30;99.90;;;;;;5054869;28;20503;-64
2024/02/11 05:05:28;;;;;;;48.97;26.30;;;10.30;99.90;;;;;;5054541;28;20469;-62
2024/02/11 05:07:56;;;;;;;52.33;27.80;;;10.30;99.90;;;;;;5054390;28;20471;-64
2024/02/11 05:10:27;;;;;;;50.27;27.07;;;10.30;99.90;;;;;;5054427;28;20450;-62
2024/02/11 05:12:54;;;;;;;50.90;25.87;;;10.20;99.90;;;;;;5054155;28;20427;-65
2024/02/11 05:15:21;;;;;;;51.67;27.90;;;10.20;99.90;;;;;;5054286;28;20551;-64
2024/02/11 05:17:50;;;;;;;66.37;28.50;;;10.20;99.90;;;;;;5054311;28;20475;-63
2024/02/11 05:20:21;;;;;;;48.60;23.47;;;10.20;99.90;;;;;;5054258;28;20569;-64
2024/02/11 05:22:50;;;;;;;51.83;25.23;;;10.20;99.90;;;;;;5055842;28;20521;-63
2024/02/11 05:25:20;;;;;;;50.90;25.57;;;10.20;99.90;;;;;;5057915;28;20528;-63
2024/02/11 05:27:55;;;;;;;55.57;25.07;;;10.20;99.90;;;;;;5057817;28;20937;-63
2024/02/11 05:30:24;;;;;;;61.67;28.83;;;10.20;99.90;;;;;;5057861;28;20526;-64
2024/02/11 05:32:51;;;;;;;51.53;26.57;;;10.10;99.90;;;;;;5058547;28;20489;-62
2024/02/11 05:35:19;;;;;;;61.53;28.87;;;10.10;99.90;;;;;;5058560;28;20442;-65
2024/02/11 05:37:52;;;;;;;56.57;27.27;;;10.10;99.90;;;;;;5076531;28;20488;-63
2024/02/11 05:40:19;;;;;;;58.90;27.17;;;10.20;99.90;;;;;;5078548;28;20423;-64
2024/02/11 05:42:46;;;;;;;50.60;26.53;;;10.20;99.90;;;;;;5078534;28;20490;-62
2024/02/11 05:45:15;;;;;;;47.10;22.47;;;10.20;99.90;;;;;;5079827;28;20466;-62
2024/02/11 05:47:42;;;;;;;60.30;25.40;;;10.10;99.90;;;;;;5080785;28;20432;-57
2024/02/11 05:50:10;;;;;;;55.40;25.30;;;10.10;99.90;;;;;;5081284;28;20434;-60
2024/02/11 05:52:37;;;;;;;48.40;22.40;;;10.10;99.90;;;;;;5081267;28;20488;-60
2024/02/11 05:55:04;;;;;;;52.20;26.47;;;10.10;99.90;;;;;;5081701;28;20434;-56
2024/02/11 05:57:31;;;;;;;56.33;25.70;;;10.10;99.90;;;;;;5081529;28;20490;-60
2024/02/11 06:00:01;;;;;;;58.63;28.27;;;10.10;99.90;;;;;;5081673;28;20442;-63
2024/02/11 06:02:29;;;;;;;47.70;23.70;;;10.10;99.90;;;;;;5081602;28;20441;-61
2024/02/11 06:04:58;;;;;;;59.70;27.03;;;10.10;99.90;;;;;;5081430;28;20486;-62
2024/02/11 06:07:25;;;;;;;67.90;28.07;;;10.10;99.90;;;;;;5081398;28;20411;-61
2024/02/11 06:09:51;;;;;;;59.03;28.40;;;10.10;99.90;;;;;;5081389;28;20454;-62
2024/02/11 06:12:18;;;;;;;63.60;29.53;;;10.00;99.90;;;;;;5081365;28;20412;-59
2024/02/11 06:14:47;;;;;;;68.63;26.30;;;10.00;99.90;;;;;;5081221;28;20430;-62
2024/02/11 06:17:15;;;;;;;62.17;25.97;;;10.00;99.90;;;;;;5081164;28;20466;-61
2024/02/11 06:19:43;;;;;;;50.57;23.17;;;10.00;99.90;;;;;;5081247;28;20475;-59
2024/02/11 06:22:13;;;;;;;57.43;25.60;;;10.00;99.90;;;;;;5081055;28;20475;-62
2024/02/11 06:24:40;;;;;;;57.30;27.13;;;10.00;99.90;;;;;;5081135;28;20423;-61
2024/02/11 06:27:07;;;;;;;55.50;27.30;;;9.90;99.90;;;;;;5081111;28;20491;-62
2024/02/11 06:29:34;;;;;;;51.00;26.23;;;10.00;99.90;;;;;;5081078;28;20458;-57
2024/02/11 06:32:02;;;;;;;68.73;27.47;;;10.00;99.90;;;;;;5080862;28;20450;-61
2024/02/11 06:34:29;;;;;;;66.63;29.37;;;10.00;99.90;;;;;;5079521;28;20443;-63
2024/02/11 06:36:57;;;;;;;57.57;25.10;;;10.00;99.90;;;;;;5080671;28;20463;-61
2024/02/11 06:39:24;;;;;;;66.03;29.77;;;10.00;99.90;;;;;;5080889;28;20419;-60
2024/02/11 06:41:54;;;;;;;64.33;25.80;;;10.00;99.90;;;;;;5080810;28;20431;-62
2024/02/11 06:44:26;;;;;;;49.93;23.67;;;10.00;99.90;;;;;;5080803;28;20420;-62
2024/02/11 06:46:55;;;;;;;51.77;25.90;;;10.00;99.90;;;;;;5080627;28;20455;-61
2024/02/11 06:49:23;;;;;;;57.70;26.83;;;10.00;99.90;;;;;;5080595;28;20422;-61
2024/02/11 06:51:51;;;;;;;64.40;26.77;;;10.00;99.90;;;;;;5080602;28;20453;-63
2024/02/11 06:54:19;;;;;;;60.87;28.80;;;9.90;99.90;;;;;;5080599;28;20441;-62
2024/02/11 06:56:47;;;;;;;50.83;25.57;;;9.90;99.90;;;;;;5080463;28;20423;-63
2024/02/11 06:59:18;;;;;;;56.40;25.27;;;9.90;99.90;;;;;;5080408;28;20459;-62
2024/02/11 07:01:45;;;;;;;73.93;27.07;;;9.90;99.90;;;;;;5080337;28;20477;-62
2024/02/11 07:04:14;;;;;;;72.80;26.33;;;9.80;99.90;;;;;;5080337;28;20427;-61
2024/02/11 07:06:45;;;;;;;57.30;23.53;;;9.80;99.90;;;;;;5080358;28;20431;-61
2024/02/11 07:09:18;;;;;;;56.23;25.40;;;9.80;99.90;;;;;;5080197;28;20430;-60
2024/02/11 07:11:48;;;;;;;51.30;24.43;;;9.80;99.90;;;;;;5080175;28;20448;-61
2024/02/11 07:14:15;;;;;;;53.67;24.20;;;9.80;99.90;;;;;;5080140;28;20445;-61
2024/02/11 07:16:43;;;;;;;54.40;25.23;;;9.80;99.90;;;;;;5080174;28;20421;-60
2024/02/11 07:19:10;;;;;;;54.90;25.73;;;9.70;99.90;;;;;;5080036;28;20415;-61
2024/02/11 07:21:39;;;;;;;66.83;24.27;;;9.80;99.90;;;;;;5080053;28;20431;-61
2024/02/11 07:24:06;;;;;;;62.00;27.00;;;9.80;99.90;;;;;;5079906;28;20481;-61
2024/02/11 07:26:33;;;;;;;59.20;28.33;;;9.70;99.90;;;;;;5079927;28;20497;-62
2024/02/11 07:29:03;;;;;;;60.50;25.03;;;9.70;99.90;;;;;;5079947;28;20439;-62
2024/02/11 07:31:29;;;;;;;59.37;25.10;;;9.80;99.90;;;;;;5079856;28;20429;-63
2024/02/11 07:33:56;;;;;;;57.87;25.50;;;9.80;99.90;;;;;;5079810;28;20478;-62
2024/02/11 07:36:23;;;;;;;65.60;27.73;;;9.80;99.90;;;;;;5079468;28;20446;-62
2024/02/11 07:38:51;;;;;;;49.23;24.63;;;9.80;99.90;;;;;;5079676;28;20459;-61
2024/02/11 07:41:18;;;;;;;50.93;23.93;;;9.80;99.90;;;;;;5079683;28;20427;-61
2024/02/11 07:43:45;;;;;;;60.67;25.50;;;9.80;99.90;;;;;;5079251;28;20458;-60
2024/02/11 07:46:16;;;;;;;49.40;22.73;;;9.80;99.90;;;;;;5079120;28;20459;-64
2024/02/11 07:48:45;;;;;;;52.40;25.17;;;9.80;99.90;;;;;;5079421;28;20448;-62
2024/02/11 07:51:14;;;;;;;54.33;24.30;;;9.80;99.90;;;;;;5078992;28;20423;-62
2024/02/11 07:53:41;;;;;;;50.07;23.90;;;9.80;99.90;;;;;;5078778;28;20489;-64
2024/02/11 07:56:14;;;;;;;57.53;24.17;;;9.80;99.90;;;;;;5078612;28;20422;-62
2024/02/11 07:58:41;;;;;;;53.67;25.47;;;9.80;99.90;;;;;;5078358;28;20468;-62
2024/02/11 08:01:10;;;;;;;59.87;26.60;;;9.90;99.90;;;;;;5078631;28;20463;-59
2024/02/11 08:03:47;;;;;;;58.07;27.23;;;9.90;99.90;;;;;;5078472;28;20442;-60
2024/02/11 08:06:14;;;;;;;53.77;24.90;;;9.90;99.90;;;;;;5078157;28;20494;-64
2024/02/11 08:08:41;;;;;;;58.50;25.53;;;9.90;99.90;;;;;;5078284;28;20415;-63
2024/02/11 08:11:08;;;;;;;50.10;23.80;;;9.90;99.90;;;;;;5078391;28;20452;-63
2024/02/11 08:13:36;;;;;;;58.50;27.77;;;9.90;99.90;;;;;;5078463;28;20443;-61
2024/02/11 08:16:04;;;;;;;70.27;24.93;;;9.90;99.90;;;;;;5078265;28;20450;-64
2024/02/11 08:18:30;;;;;;;50.90;25.03;;;9.90;99.90;;;;;;5078237;28;20565;-62
2024/02/11 08:21:02;;;;;;;54.87;23.73;;;9.90;99.90;;;;;;5078597;28;20432;-62
2024/02/11 08:23:29;;;;;;;64.03;22.93;;;9.90;99.90;;;;;;5078302;28;20465;-55
2024/02/11 08:25:56;;;;;;;49.80;23.40;;;9.90;99.90;;;;;;5077895;28;20455;-50
2024/02/11 08:28:26;;;;;;;49.27;23.60;;;9.90;99.90;;;;;;5077664;28;20479;-51
2024/02/11 08:30:53;;;;;;;58.83;26.03;;;10.00;99.90;;;;;;5077705;28;20426;-51
2024/02/11 08:33:22;;;;;;;56.83;25.20;;;10.00;99.90;;;;;;5077772;28;20435;-52
2024/02/11 08:35:49;;;;;;;63.83;26.87;;;10.00;99.90;;;;;;5077661;28;20439;-50
2024/02/11 08:38:17;;;;;;;57.30;25.40;;;10.00;99.90;;;;;;5077838;28;20471;-54
2024/02/11 08:40:44;;;;;;;49.17;25.67;;;10.00;99.90;;;;;;5077635;28;20475;-55
2024/02/11 08:43:11;;;;;;;54.60;25.90;;;10.00;99.90;;;;;;5077463;28;20440;-49
2024/02/11 08:45:38;;;;;;;66.23;26.03;;;10.00;99.90;;;;;;5077717;28;20454;-50
2024/02/11 08:48:05;;;;;;;49.53;23.47;;;10.00;99.90;;;;;;5078037;28;20427;-49
2024/02/11 08:50:32;;;;;;;53.43;24.60;;;10.00;99.90;;;;;;5077494;28;20465;-55
2024/02/11 08:53:00;;;;;;;66.47;26.50;;;10.00;99.90;;;;;;5077937;28;20455;-54
2024/02/11 08:55:30;;;;;;;55.57;23.13;;;10.00;99.90;;;;;;5077604;28;20467;-50
2024/02/11 08:57:59;;;;;;;55.87;26.33;;;10.10;99.90;;;;;;5079576;28;20545;-53
2024/02/11 09:00:29;;;;;;;54.07;24.10;;;10.10;99.90;;;;;;5081534;28;20526;-51
2024/02/11 09:02:56;;;;;;;59.70;26.10;;;10.10;99.90;;;;;;5081876;28;20422;-55
2024/02/11 09:05:24;;;;;;;50.90;24.30;;;10.10;99.90;;;;;;5081477;28;20466;-54
2024/02/11 09:07:51;;;;;;;58.40;25.90;;;10.20;99.90;;;;;;5081576;28;20450;-56
2024/02/11 09:10:19;;;;;;;67.77;26.83;;;10.20;99.90;;;;;;5081665;28;20471;-52
2024/02/11 09:12:47;;;;;;;55.13;26.30;;;10.20;99.90;;;;;;5081775;28;20451;-54
2024/02/11 09:15:15;;;;;;;56.57;24.87;;;10.20;99.90;;;;;;5081645;28;20498;-51
2024/02/11 09:17:44;;;;;;;62.47;26.27;;;10.20;99.90;;;;;;5081402;28;20477;-54
2024/02/11 09:20:15;;;;;;;56.80;26.20;;;10.20;99.90;;;;;;5081257;28;20450;-51
2024/02/11 09:22:43;;;;;;;61.77;25.77;;;10.20;99.90;;;;;;5081602;28;20424;-54
2024/02/11 09:25:15;;;;;;;59.00;29.30;;;10.30;99.90;;;;;;5081479;28;20483;-52
2024/02/11 09:27:42;;;;;;;52.93;24.43;;;10.30;99.90;;;;;;5081220;28;20426;-51
2024/02/11 09:30:13;;;;;;;54.57;25.47;;;10.30;99.90;;;;;;5081223;28;20443;-52
2024/02/11 09:32:42;;;;;;;50.33;24.13;;;10.30;99.90;;;;;;5081251;28;20412;-54
2024/02/11 09:35:10;;;;;;;57.23;28.83;;;10.30;99.90;;;;;;5081227;28;20464;-51
2024/02/11 09:37:37;;;;;;;56.57;25.83;;;10.20;99.90;;;;;;5080928;28;20491;-45
2024/02/11 09:40:06;;;;;;;56.37;23.83;;;10.20;99.90;;;;;;5080875;28;20454;-53
2024/02/11 09:42:33;;;;;;;58.17;24.80;;;10.30;99.90;;;;;;5080568;28;20479;-53
2024/02/11 09:45:03;;;;;;;59.33;27.00;;;10.30;99.90;;;;;;5079774;28;20444;-55
2024/02/11 09:47:33;;;;;;;63.13;26.40;;;10.30;99.90;;;;;;5079526;28;20486;-51
2024/02/11 09:50:06;;;;;;;64.70;27.40;;;10.30;99.90;;;;;;5079595;28;20432;-56
2024/02/11 09:52:33;;;;;;;43.80;23.57;;;10.30;99.90;;;;;;5079751;28;20475;-56
2024/02/11 09:55:03;;;;;;;49.07;24.63;;;10.30;99.90;;;;;;5079442;28;20459;-52
2024/02/11 09:57:30;;;;;;;58.43;25.63;;;10.30;99.90;;;;;;5079478;28;20467;-54
2024/02/11 09:59:59;;;;;;;56.77;24.87;;;10.30;99.90;;;;;;5079687;28;20448;-50
2024/02/11 10:02:27;;;;;;;44.60;23.70;;;10.30;99.90;;;;;;5079930;28;20465;-55
2024/02/11 10:05:00;;;;;;;49.07;25.20;;;10.30;99.90;;;;;;5079762;28;20436;-52
2024/02/11 10:07:27;;;;;;;50.00;25.53;;;10.30;99.90;;;;;;5079111;28;20404;-52
2024/02/11 10:09:57;;;;;;;45.23;24.80;;;10.30;99.90;;;;;;5078952;28;20449;-51
2024/02/11 10:12:26;;;;;;;52.90;25.17;;;10.30;99.90;;;;;;5078958;28;20515;-56
2024/02/11 10:14:54;;;;;;;52.23;22.90;;;10.30;99.90;;;;;;5078892;28;20464;-51
2024/02/11 10:17:22;;;;;;;53.93;23.60;;;10.30;99.90;;;;;;5078815;28;20443;-54
2024/02/11 10:19:51;;;;;;;41.07;21.00;;;10.30;99.90;;;;;;5078346;28;20493;-56
2024/02/11 10:22:22;;;;;;;45.53;23.77;;;10.30;99.90;;;;;;5078667;28;20428;-54
2024/02/11 10:24:49;;;;;;;43.33;20.97;;;10.30;99.90;;;;;;5078222;28;20480;-57
2024/02/11 10:27:17;;;;;;;45.80;21.43;;;10.30;99.90;;;;;;5078775;28;20447;-56
2024/02/11 10:29:45;;;;;;;44.93;22.77;;;10.30;99.90;;;;;;5077999;28;20452;-53
2024/02/11 10:32:13;;;;;;;43.63;21.87;;;10.40;99.90;;;;;;5077587;28;20458;-55
2024/02/11 10:34:42;;;;;;;41.70;20.47;;;10.40;99.90;;;;;;5077392;28;20519;-54
2024/02/11 10:37:10;;;;;;;31.73;17.97;;;10.40;99.90;;;;;;5077253;28;20472;-63
2024/02/11 10:39:39;;;;;;;53.63;22.23;;;10.40;99.90;;;;;;5077296;28;20484;-64
2024/02/11 10:42:08;;;;;;;47.77;21.27;;;10.40;99.90;;;;;;5077762;28;20439;-62
2024/02/11 10:44:38;;;;;;;54.03;23.13;;;10.50;99.90;;;;;;5077546;28;20474;-63
2024/02/11 10:47:06;;;;;;;47.00;22.73;;;10.50;99.90;;;;;;5077550;28;20487;-63
2024/02/11 10:49:34;;;;;;;39.63;20.20;;;10.50;99.90;;;;;;5077517;28;20486;-63
2024/02/11 10:52:06;;;;;;;38.70;20.77;;;10.50;99.90;;;;;;5077444;28;20496;-65
2024/02/11 10:54:47;;;;;;;44.10;20.53;;;10.50;99.90;;;;;;5077275;28;20447;-63
2024/02/11 10:57:20;;;;;;;44.70;25.13;;;10.50;99.90;;;;;;5077030;28;20418;-62
2024/02/11 10:59:52;;;;;;;37.53;19.93;;;10.40;99.90;;;;;;5076933;28;20548;-61
2024/02/11 11:02:20;;;;;;;36.57;18.90;;;10.40;99.90;;;;;;5077061;28;20472;-63
2024/02/11 11:04:50;;;;;;;38.23;20.80;;;10.40;99.90;;;;;;5076877;28;20451;-63
2024/02/11 11:07:20;;;;;;;52.37;22.70;;;10.50;99.90;;;;;;5076820;28;20455;-63
2024/02/11 11:09:48;;;;;;;44.27;23.40;;;10.50;99.90;;;;;;5077352;28;20419;-63
2024/02/11 11:12:17;;;;;;;42.80;19.47;;;10.50;99.90;;;;;;5077181;28;20467;-63
2024/02/11 11:14:45;;;;;;;40.67;19.97;;;10.40;99.90;;;;;;5077022;28;20424;-63
2024/02/11 11:17:18;;;;;;;41.23;21.10;;;10.50;99.90;;;;;;5077071;28;20439;-63
2024/02/11 11:19:49;;;;;;;40.97;19.90;;;10.50;99.90;;;;;;5077016;28;20462;-62
2024/02/11 11:22:26;;;;;;;37.13;19.57;;;10.50;99.90;;;;;;5077337;28;20452;-61
2024/02/11 11:24:59;;;;;;;40.97;23.90;;;10.50;99.90;;;;;;5077169;28;20946;-63
2024/02/11 11:27:26;;;;;;;41.13;21.00;;;10.50;99.90;;;;;;5077784;28;20475;-63
2024/02/11 11:29:53;;;;;;;34.63;20.23;;;10.50;99.90;;;;;;5077593;28;20442;-63
2024/02/11 11:32:23;;;;;;;38.73;20.00;;;10.50;99.90;;;;;;5076973;28;20471;-64
2024/02/11 11:34:50;;;;;;;40.47;21.30;;;10.60;99.90;;;;;;5076882;28;20459;-65
2024/02/11 11:37:18;;;;;;;40.77;22.10;;;10.60;99.90;;;;;;5076878;28;20507;-63
2024/02/11 11:39:45;;;;;;;45.00;22.67;;;10.60;99.90;;;;;;5077463;28;20550;-61
2024/02/11 11:42:16;;;;;;;35.83;18.57;;;10.60;99.90;;;;;;5077505;28;20476;-57
2024/02/11 11:44:47;;;;;;;35.73;19.83;;;10.50;99.90;;;;;;5077744;28;20437;-59
2024/02/11 11:47:14;;;;;;;41.30;22.23;;;10.50;99.90;;;;;;5077377;28;20417;-62
2024/02/11 11:49:43;;;;;;;41.83;20.77;;;10.60;99.90;;;;;;5076578;28;20436;-62
2024/02/11 11:52:11;;;;;;;37.40;20.03;;;10.60;99.90;;;;;;5076161;28;20436;-61
2024/02/11 11:54:38;;;;;;;43.17;21.20;;;10.60;99.90;;;;;;5076802;28;20468;-63
2024/02/11 11:57:08;;;;;;;35.17;19.13;;;10.60;99.90;;;;;;5077009;28;20473;-63
2024/02/11 11:59:36;;;;;;;40.73;22.97;;;10.60;99.90;;;;;;5076775;28;20486;-64
2024/02/11 12:02:04;;;;;;;39.37;19.57;;;10.60;99.90;;;;;;5077057;28;20465;-62
2024/02/11 12:04:36;;;;;;;36.33;17.67;;;10.60;99.90;;;;;;5076887;28;20452;-63
2024/02/11 12:07:05;;;;;;;40.30;19.80;;;10.60;99.90;;;;;;5076024;28;20467;-64
2024/02/11 12:09:32;;;;;;;35.93;19.30;;;10.60;99.90;;;;;;5075375;28;20439;-63
2024/02/11 12:11:59;;;;;;;34.50;19.60;;;10.60;99.90;;;;;;5075634;28;20443;-64
2024/02/11 12:14:27;;;;;;;31.23;19.00;;;10.60;99.90;;;;;;5075422;28;20440;-62
2024/02/11 12:16:55;;;;;;;34.43;19.53;;;10.60;99.90;;;;;;5075341;28;20462;-65
2024/02/11 12:19:25;;;;;;;41.67;20.17;;;10.60;99.90;;;;;;5074748;28;20494;-62
2024/02/11 12:21:54;;;;;;;36.47;18.53;;;10.60;99.90;;;;;;5075560;28;20459;-61
2024/02/11 12:24:22;;;;;;;33.20;19.77;;;10.60;99.90;;;;;;5075520;28;20428;-63
2024/02/11 12:26:49;;;;;;;39.70;19.37;;;10.60;99.90;;;;;;5075700;28;20455;-62
2024/02/11 12:29:24;;;;;;;36.00;21.20;;;10.50;99.90;;;;;;5076127;28;20466;-60
2024/02/11 12:31:52;;;;;;;35.33;19.77;;;10.50;99.90;;;;;;5076135;28;20887;-64
2024/02/11 12:34:24;;;;;;;40.57;20.20;;;10.50;99.90;;;;;;5076546;28;20442;-62